createdAt,value
2023-03-05T00:01:59.942Z,3.60
2023-03-05T00:04:26.676Z,3.50
2023-03-05T00:06:53.353Z,3.60
2023-03-05T00:09:20.034Z,3.70
2023-03-05T00:11:46.854Z,3.60
2023-03-05T00:14:13.775Z,3.60
2023-03-05T00:16:40.745Z,3.70
2023-03-05T00:19:07.487Z,3.70
2023-03-05T00:21:37.900Z,3.70
2023-03-05T00:24:07.863Z,3.70
2023-03-05T00:26:36.847Z,3.70
2023-03-05T00:29:04.630Z,3.40
2023-03-05T00:31:34.008Z,3.40
2023-03-05T00:34:04.459Z,3.50
2023-03-05T00:36:31.603Z,3.40
2023-03-05T00:38:59.764Z,3.40
2023-03-05T00:41:27.262Z,3.40
2023-03-05T00:43:53.995Z,3.50
2023-03-05T00:46:20.688Z,3.50
2023-03-05T00:48:47.532Z,3.50
2023-03-05T00:51:14.234Z,3.40
2023-03-05T00:53:40.980Z,3.40
2023-03-05T00:56:07.640Z,3.50
2023-03-05T00:58:34.426Z,3.50
2023-03-05T01:01:02.688Z,3.50
2023-03-05T01:03:31.222Z,3.40
2023-03-05T01:05:58.040Z,3.40
2023-03-05T01:08:25.079Z,3.50
2023-03-05T01:10:52.023Z,3.40
2023-03-05T01:13:19.521Z,3.50
2023-03-05T01:15:48.578Z,3.40
2023-03-05T01:18:15.494Z,3.60
2023-03-05T01:20:42.224Z,3.50
2023-03-05T01:23:09.042Z,3.50
2023-03-05T01:25:35.995Z,3.40
2023-03-05T01:28:02.989Z,3.30
2023-03-05T01:30:29.853Z,3.20
2023-03-05T01:32:56.959Z,3.30
2023-03-05T01:35:25.037Z,3.30
2023-03-05T01:37:52.754Z,3.30
2023-03-05T01:40:26.906Z,3.30
2023-03-05T01:43:13.515Z,3.30
2023-03-05T01:46:19.292Z,3.30
2023-03-05T01:48:50.665Z,3.40
2023-03-05T01:51:19.062Z,3.40
2023-03-05T01:53:46.774Z,3.30
2023-03-05T01:56:13.854Z,3.30
2023-03-05T01:58:40.996Z,3.40
2023-03-05T02:01:07.808Z,3.40
2023-03-05T02:03:35.537Z,3.40
2023-03-05T02:06:02.415Z,3.40
2023-03-05T02:08:29.085Z,3.40
2023-03-05T02:10:57.202Z,3.30
2023-03-05T02:13:31.531Z,3.30
2023-03-05T02:15:59.731Z,3.20
2023-03-05T02:18:27.060Z,3.30
2023-03-05T02:20:56.839Z,3.30
2023-03-05T02:23:27.498Z,3.30
2023-03-05T02:25:54.851Z,3.50
2023-03-05T02:28:44.380Z,3.50
2023-03-05T02:31:22.569Z,3.40
2023-03-05T02:33:49.754Z,3.30
2023-03-05T02:36:18.720Z,3.20
2023-03-05T02:38:46.906Z,3.20
2023-03-05T02:41:14.822Z,3.20
2023-03-05T02:43:41.938Z,3.20
2023-03-05T02:46:08.977Z,3.20
2023-03-05T02:48:35.647Z,3.10
2023-03-05T02:51:04.545Z,3.00
2023-03-05T02:53:31.231Z,3.10
2023-03-05T02:55:57.928Z,3.20
2023-03-05T02:58:24.640Z,3.20
2023-03-05T03:00:51.678Z,3.30
2023-03-05T03:03:18.977Z,3.30
2023-03-05T03:05:45.631Z,3.50
2023-03-05T03:08:12.313Z,3.40
2023-03-05T03:10:38.972Z,3.40
2023-03-05T03:13:05.630Z,3.30
2023-03-05T03:15:32.644Z,3.30
2023-03-05T03:17:59.294Z,3.30
2023-03-05T03:20:26.059Z,3.20
2023-03-05T03:22:53.669Z,3.10
2023-03-05T03:25:23.136Z,3.20
2023-03-05T03:27:52.077Z,3.20
2023-03-05T03:30:19.164Z,3.20
2023-03-05T03:32:45.988Z,3.10
2023-03-05T03:35:13.719Z,3.20
2023-03-05T03:37:40.634Z,3.10
2023-03-05T03:40:08.293Z,3.00
2023-03-05T03:42:35.293Z,3.00
2023-03-05T03:45:02.280Z,3.10
2023-03-05T03:47:30.194Z,3.10
2023-03-05T03:49:57.335Z,3.30
2023-03-05T03:52:23.992Z,3.30
2023-03-05T03:54:52.379Z,3.20
2023-03-05T03:57:19.238Z,3.30
2023-03-05T03:59:46.147Z,3.20
2023-03-05T04:02:13.702Z,3.20
2023-03-05T04:04:40.451Z,3.10
2023-03-05T04:07:07.394Z,3.10
2023-03-05T04:09:34.104Z,3.10
2023-03-05T04:12:00.741Z,3.10
2023-03-05T04:14:27.438Z,3.20
2023-03-05T04:16:54.110Z,3.10
2023-03-05T04:19:21.138Z,3.20
2023-03-05T04:21:47.881Z,3.30
2023-03-05T04:24:14.531Z,3.30
2023-03-05T04:26:41.219Z,3.10
2023-03-05T04:29:07.893Z,3.00
2023-03-05T04:31:34.628Z,3.00
2023-03-05T04:34:01.355Z,3.20
2023-03-05T04:36:28.112Z,3.40
2023-03-05T04:38:54.832Z,3.20
2023-03-05T04:41:21.474Z,3.00
2023-03-05T04:43:48.127Z,3.10
2023-03-05T04:46:14.838Z,3.30
2023-03-05T04:48:41.690Z,3.20
2023-03-05T04:51:08.422Z,3.00
2023-03-05T04:53:35.994Z,3.00
2023-03-05T04:56:02.950Z,3.00
2023-03-05T04:58:29.696Z,3.20
2023-03-05T05:01:02.225Z,3.20
2023-03-05T05:03:28.970Z,3.10
2023-03-05T05:05:58.159Z,3.20
2023-03-05T05:08:25.602Z,3.30
2023-03-05T05:10:59.897Z,3.10
2023-03-05T05:13:27.355Z,3.00
2023-03-05T05:15:54.075Z,3.00
2023-03-05T05:18:21.463Z,3.00
2023-03-05T05:20:48.887Z,3.00
2023-03-05T05:23:16.662Z,3.00
2023-03-05T05:25:43.549Z,2.90
2023-03-05T05:28:11.419Z,2.90
2023-03-05T05:30:38.489Z,2.80
2023-03-05T05:33:05.258Z,2.80
2023-03-05T05:35:31.951Z,2.70
2023-03-05T05:37:58.790Z,2.70
2023-03-05T05:40:25.471Z,2.80
2023-03-05T05:42:52.155Z,2.90
2023-03-05T05:45:19.104Z,2.70
2023-03-05T05:47:45.823Z,2.70
2023-03-05T05:50:12.580Z,2.80
2023-03-05T05:52:39.257Z,2.80
2023-03-05T05:55:06.473Z,2.80
2023-03-05T05:57:34.553Z,2.90
2023-03-05T06:00:01.460Z,3.00
2023-03-05T06:02:42.251Z,3.00
2023-03-05T06:05:12.278Z,3.00
2023-03-05T06:07:39.386Z,2.90
2023-03-05T06:10:06.885Z,2.90
2023-03-05T06:12:33.661Z,2.90
2023-03-05T06:15:00.343Z,3.00
2023-03-05T06:17:30.702Z,2.90
2023-03-05T06:19:58.308Z,2.90
2023-03-05T06:22:25.343Z,2.80
2023-03-05T06:24:52.037Z,2.80
2023-03-05T06:27:18.772Z,2.70
2023-03-05T06:29:45.450Z,2.80
2023-03-05T06:32:12.201Z,2.80
2023-03-05T06:34:38.910Z,2.90
2023-03-05T06:37:05.657Z,3.00
2023-03-05T06:39:32.311Z,2.90
2023-03-05T06:41:59.313Z,2.80
2023-03-05T06:44:26.210Z,2.90
2023-03-05T06:46:52.901Z,2.80
2023-03-05T06:49:19.728Z,2.90
2023-03-05T06:51:46.430Z,3.00
2023-03-05T06:54:15.645Z,3.00
2023-03-05T06:56:47.000Z,3.00
2023-03-05T06:59:15.774Z,3.10
2023-03-05T07:01:43.502Z,3.10
2023-03-05T07:04:12.452Z,3.00
2023-03-05T07:06:39.959Z,3.00
2023-03-05T07:09:08.441Z,3.00
2023-03-05T07:11:35.922Z,3.10
2023-03-05T07:14:03.254Z,3.10
2023-03-05T07:16:32.374Z,3.20
2023-03-05T07:19:02.680Z,3.40
2023-03-05T07:21:31.806Z,3.50
2023-03-05T07:24:00.607Z,3.30
2023-03-05T07:26:28.199Z,3.30
2023-03-05T07:28:55.235Z,3.30
2023-03-05T07:31:27.107Z,3.30
2023-03-05T07:33:54.107Z,3.20
2023-03-05T07:36:20.893Z,3.30
2023-03-05T07:38:47.775Z,3.40
2023-03-05T07:41:20.001Z,3.50
2023-03-05T07:43:48.695Z,3.40
2023-03-05T07:46:17.875Z,3.30
2023-03-05T07:48:44.991Z,3.50
2023-03-05T07:51:15.817Z,3.50
2023-03-05T07:53:47.759Z,3.50
2023-03-05T07:56:14.954Z,3.60
2023-03-05T07:58:41.931Z,3.50
2023-03-05T08:01:14.120Z,3.30
2023-03-05T08:03:41.989Z,3.30
2023-03-05T08:06:10.037Z,3.50
2023-03-05T08:08:37.236Z,3.70
2023-03-05T08:11:10.125Z,3.80
2023-03-05T08:13:37.533Z,3.60
2023-03-05T08:16:06.273Z,3.50
2023-03-05T08:18:33.332Z,3.30
2023-03-05T08:21:00.195Z,3.50
2023-03-05T08:23:28.032Z,3.60
2023-03-05T08:25:55.269Z,3.50
2023-03-05T08:28:22.029Z,3.60
2023-03-05T08:30:49.539Z,3.70
2023-03-05T08:33:19.594Z,3.70
2023-03-05T08:35:46.635Z,3.70
2023-03-05T08:38:13.548Z,3.70
2023-03-05T08:40:40.308Z,3.70
2023-03-05T08:43:07.218Z,3.80
2023-03-05T08:45:34.041Z,3.90
2023-03-05T08:48:00.742Z,4.00
2023-03-05T08:50:27.519Z,4.00
2023-03-05T08:52:56.031Z,3.90
2023-03-05T08:55:22.772Z,3.90
2023-03-05T08:57:49.505Z,3.90
2023-03-05T09:00:16.493Z,3.80
2023-03-05T09:02:43.178Z,4.10
2023-03-05T09:05:10.205Z,4.00
2023-03-05T09:07:37.877Z,4.10
2023-03-05T09:10:06.100Z,4.10
2023-03-05T09:12:32.792Z,4.10
2023-03-05T09:14:59.467Z,4.10
2023-03-05T09:17:26.132Z,4.20
2023-03-05T09:19:52.821Z,4.30
2023-03-05T09:22:19.525Z,4.40
2023-03-05T09:24:46.239Z,4.40
2023-03-05T09:27:12.919Z,4.30
2023-03-05T09:29:41.903Z,4.40
2023-03-05T09:32:09.813Z,4.50
2023-03-05T09:34:37.217Z,4.40
2023-03-05T09:37:04.340Z,4.40
2023-03-05T09:39:31.153Z,4.50
2023-03-05T09:42:23.541Z,4.50
2023-03-05T09:45:21.059Z,4.70
2023-03-05T09:47:57.232Z,4.90
2023-03-05T09:50:56.299Z,5.00
2023-03-05T09:53:26.461Z,4.90
2023-03-05T09:55:56.239Z,4.90
2023-03-05T09:59:03.928Z,4.90
2023-03-05T10:01:38.758Z,4.90
2023-03-05T10:04:26.723Z,4.80
2023-03-05T10:07:00.213Z,5.00
2023-03-05T10:09:45.913Z,4.90
2023-03-05T10:12:39.380Z,5.00
2023-03-05T10:15:24.168Z,5.00
2023-03-05T10:17:57.151Z,5.20
2023-03-05T10:20:58.669Z,5.30
2023-03-05T10:23:49.977Z,5.40
2023-03-05T10:26:51.904Z,5.50
2023-03-05T10:30:00.498Z,5.50
2023-03-05T10:32:46.183Z,5.60
2023-03-05T10:35:42.767Z,5.60
2023-03-05T10:38:09.662Z,5.60
2023-03-05T10:40:48.191Z,5.80
2023-03-05T10:43:36.301Z,5.90
2023-03-05T10:46:12.825Z,5.90
2023-03-05T10:49:05.291Z,6.00
2023-03-05T10:52:08.884Z,6.10
2023-03-05T10:54:37.576Z,6.00
2023-03-05T10:57:23.330Z,6.10
2023-03-05T11:00:16.845Z,6.10
2023-03-05T11:02:54.108Z,6.10
2023-03-05T11:05:39.973Z,6.10
2023-03-05T11:08:27.633Z,6.00
2023-03-05T11:11:06.671Z,5.90
2023-03-05T11:13:35.565Z,5.60
2023-03-05T11:16:07.118Z,5.40
2023-03-05T11:18:34.895Z,5.40
2023-03-05T11:21:19.841Z,5.30
2023-03-05T11:24:13.991Z,5.20
2023-03-05T11:26:56.820Z,5.40
2023-03-05T11:29:40.822Z,5.30
2023-03-05T11:32:20.236Z,5.40
2023-03-05T11:34:47.145Z,5.60
2023-03-05T11:37:26.540Z,5.60
2023-03-05T11:40:20.415Z,5.50
2023-03-05T11:42:54.373Z,5.40
2023-03-05T11:45:22.345Z,5.30
2023-03-05T11:47:51.618Z,5.10
2023-03-05T11:50:29.085Z,4.90
2023-03-05T11:53:17.878Z,4.70
2023-03-05T11:55:53.060Z,4.70
2023-03-05T11:58:32.927Z,4.60
2023-03-05T12:01:09.484Z,4.80
2023-03-05T12:03:42.171Z,4.80
2023-03-05T12:06:20.378Z,4.80
2023-03-05T12:08:52.610Z,4.90
2023-03-05T12:11:28.670Z,5.10
2023-03-05T12:14:07.513Z,5.20
2023-03-05T12:16:42.665Z,5.00
2023-03-05T12:19:12.399Z,4.90
2023-03-05T12:21:42.571Z,5.00
2023-03-05T12:24:27.481Z,5.10
2023-03-05T12:27:03.373Z,5.30
2023-03-05T12:29:45.062Z,5.30
2023-03-05T12:32:32.452Z,5.60
2023-03-05T12:35:08.754Z,5.60
2023-03-05T12:37:44.085Z,5.70
2023-03-05T12:40:37.299Z,5.80
2023-03-05T12:43:27.762Z,5.70
2023-03-05T12:46:23.643Z,5.60
2023-03-05T12:48:50.911Z,5.50
2023-03-05T12:51:36.252Z,5.70
2023-03-05T12:54:36.530Z,5.70
2023-03-05T12:57:21.398Z,5.60
2023-03-05T13:00:01.043Z,5.70
2023-03-05T13:02:37.038Z,5.90
2023-03-05T13:05:30.299Z,5.90
2023-03-05T13:08:31.607Z,5.90
2023-03-05T13:11:07.367Z,5.70
2023-03-05T13:13:38.319Z,5.50
2023-03-05T13:16:05.693Z,5.40
2023-03-05T13:18:33.368Z,5.50
2023-03-05T13:21:04.707Z,5.50
2023-03-05T13:23:32.835Z,5.60
2023-03-05T13:26:12.312Z,5.50
2023-03-05T13:28:39.976Z,5.50
2023-03-05T13:31:14.986Z,5.40
2023-03-05T13:33:56.862Z,5.20
2023-03-05T13:36:26.889Z,4.90
2023-03-05T13:38:54.133Z,5.00
2023-03-05T13:41:22.352Z,4.90
2023-03-05T13:43:55.499Z,4.90
2023-03-05T13:46:44.939Z,4.90
2023-03-05T13:49:19.330Z,4.80
2023-03-05T13:51:48.711Z,4.60
2023-03-05T13:54:16.885Z,4.80
2023-03-05T13:56:56.648Z,4.80
2023-03-05T13:59:26.351Z,4.80
2023-03-05T14:01:53.513Z,4.80
2023-03-05T14:04:34.562Z,4.90
2023-03-05T14:07:26.775Z,5.00
2023-03-05T14:09:53.792Z,4.80
2023-03-05T14:12:33.008Z,4.90
2023-03-05T14:15:02.243Z,5.00
2023-03-05T14:17:36.913Z,4.90
2023-03-05T14:20:11.224Z,4.80
2023-03-05T14:22:43.090Z,4.70
2023-03-05T14:25:39.588Z,4.70
2023-03-05T14:28:18.652Z,4.60
2023-03-05T14:30:47.693Z,4.50
2023-03-05T14:33:20.755Z,4.40
2023-03-05T14:35:51.872Z,4.10
2023-03-05T14:38:26.762Z,4.00
2023-03-05T14:40:53.638Z,4.10
2023-03-05T14:43:20.633Z,4.40
2023-03-05T14:45:47.942Z,4.60
2023-03-05T14:48:18.734Z,4.80
2023-03-05T14:50:54.695Z,4.90
2023-03-05T14:53:25.938Z,4.70
2023-03-05T14:55:56.949Z,4.60
2023-03-05T14:58:32.195Z,4.70
2023-03-05T15:00:59.447Z,4.60
2023-03-05T15:03:27.837Z,4.70
2023-03-05T15:05:58.256Z,5.00
2023-03-05T15:08:30.872Z,5.10
2023-03-05T15:10:58.339Z,5.10
2023-03-05T15:13:25.100Z,5.20
2023-03-05T15:15:53.134Z,5.20
2023-03-05T15:18:22.376Z,5.10
2023-03-05T15:20:52.838Z,5.10
2023-03-05T15:23:20.268Z,5.00
2023-03-05T15:25:47.061Z,5.00
2023-03-05T15:28:13.895Z,4.90
2023-03-05T15:30:49.322Z,4.80
2023-03-05T15:33:17.869Z,4.80
2023-03-05T15:35:50.171Z,4.90
2023-03-05T15:38:19.727Z,4.90
2023-03-05T15:40:50.895Z,5.00
2023-03-05T15:43:18.603Z,5.20
2023-03-05T15:45:45.654Z,5.20
2023-03-05T15:48:12.746Z,5.10
2023-03-05T15:50:43.052Z,5.20
2023-03-05T15:53:12.489Z,5.10
2023-03-05T15:55:40.347Z,5.00
2023-03-05T15:58:07.422Z,5.00
2023-03-05T16:00:37.043Z,4.90
2023-03-05T16:03:04.103Z,5.10
2023-03-05T16:05:32.273Z,5.00
2023-03-05T16:07:59.993Z,4.90
2023-03-05T16:10:36.388Z,4.90
2023-03-05T16:13:07.785Z,4.80
2023-03-05T16:15:35.466Z,4.90
2023-03-05T16:18:06.123Z,4.90
2023-03-05T16:20:33.039Z,4.80
2023-03-05T16:22:59.861Z,4.70
2023-03-05T16:25:27.016Z,4.80
2023-03-05T16:27:53.747Z,4.90
2023-03-05T16:30:20.725Z,4.90
2023-03-05T16:32:47.424Z,4.90
2023-03-05T16:35:15.086Z,5.00
2023-03-05T16:37:42.263Z,5.10
2023-03-05T16:40:10.982Z,5.20
2023-03-05T16:42:37.691Z,5.20
2023-03-05T16:45:06.097Z,5.20
2023-03-05T16:47:33.337Z,5.20
2023-03-05T16:50:00.847Z,5.20
2023-03-05T16:52:28.453Z,5.10
2023-03-05T16:54:55.345Z,5.10
2023-03-05T16:57:23.953Z,5.10
2023-03-05T16:59:51.371Z,5.00
2023-03-05T17:02:18.540Z,4.80
2023-03-05T17:04:46.032Z,4.70
2023-03-05T17:07:12.766Z,4.80
2023-03-05T17:09:40.966Z,4.90
2023-03-05T17:12:11.615Z,4.90
2023-03-05T17:14:45.009Z,5.00
2023-03-05T17:17:11.995Z,5.00
2023-03-05T17:19:40.168Z,5.00
2023-03-05T17:22:07.302Z,4.80
2023-03-05T17:24:33.995Z,4.90
2023-03-05T17:27:00.862Z,5.10
2023-03-05T17:29:27.885Z,5.30
2023-03-05T17:31:54.735Z,5.40
2023-03-05T17:34:33.356Z,5.20
2023-03-05T17:37:02.149Z,5.00
2023-03-05T17:39:29.398Z,5.10
2023-03-05T17:41:56.138Z,5.00
2023-03-05T17:44:22.880Z,5.10
2023-03-05T17:46:49.548Z,5.00
2023-03-05T17:49:16.306Z,4.80
2023-03-05T17:51:42.980Z,4.60
2023-03-05T17:54:09.625Z,4.60
2023-03-05T17:56:36.301Z,4.60
2023-03-05T17:59:03.050Z,4.70
2023-03-05T18:01:32.508Z,4.70
2023-03-05T18:03:59.335Z,4.90
2023-03-05T18:06:26.872Z,5.00
2023-03-05T18:08:53.713Z,4.80
2023-03-05T18:11:20.739Z,4.60
2023-03-05T18:13:47.392Z,4.70
2023-03-05T18:16:16.859Z,4.80
2023-03-05T18:18:44.946Z,4.50
2023-03-05T18:21:11.818Z,4.40
2023-03-05T18:23:38.543Z,4.50
2023-03-05T18:26:05.348Z,4.60
2023-03-05T18:28:32.069Z,4.50
2023-03-05T18:30:58.881Z,4.80
2023-03-05T18:33:25.799Z,4.90
2023-03-05T18:35:53.349Z,4.70
2023-03-05T18:38:23.517Z,4.50
2023-03-05T18:40:51.531Z,4.30
2023-03-05T18:43:22.773Z,4.40
2023-03-05T18:45:54.248Z,4.40
2023-03-05T18:48:21.102Z,4.40
2023-03-05T18:50:52.704Z,4.40
2023-03-05T18:53:20.840Z,4.40
2023-03-05T18:55:50.947Z,4.50
2023-03-05T18:58:18.084Z,4.50
2023-03-05T19:00:47.167Z,4.40
2023-03-05T19:03:16.294Z,4.60
2023-03-05T19:05:43.157Z,4.60
2023-03-05T19:08:10.015Z,4.40
2023-03-05T19:10:37.063Z,4.30
2023-03-05T19:13:35.404Z,4.40
2023-03-05T19:16:12.503Z,4.50
2023-03-05T19:18:46.730Z,4.40
2023-03-05T19:21:13.453Z,4.30
2023-03-05T19:23:40.184Z,4.30
2023-03-05T19:26:07.183Z,4.40
2023-03-05T19:28:33.844Z,4.30
2023-03-05T19:31:00.561Z,4.40
2023-03-05T19:33:27.514Z,4.20
2023-03-05T19:35:54.979Z,4.30
2023-03-05T19:38:21.718Z,4.20
2023-03-05T19:40:48.454Z,4.20
2023-03-05T19:43:17.472Z,4.00
2023-03-05T19:45:44.211Z,4.10
2023-03-05T19:48:10.942Z,4.10
2023-03-05T19:50:37.632Z,4.10
2023-03-05T19:53:04.525Z,4.00
2023-03-05T19:55:34.652Z,4.00
2023-03-05T19:58:01.330Z,4.00
2023-03-05T20:00:28.228Z,4.10
2023-03-05T20:02:54.956Z,4.10
2023-03-05T20:05:25.468Z,4.00
2023-03-05T20:07:53.263Z,4.10
2023-03-05T20:10:23.118Z,4.20
2023-03-05T20:12:51.284Z,4.10
2023-03-05T20:15:19.748Z,4.10
2023-03-05T20:17:46.470Z,4.20
2023-03-05T20:20:17.930Z,4.10
2023-03-05T20:22:45.938Z,4.00
2023-03-05T20:25:14.647Z,3.90
2023-03-05T20:27:41.337Z,3.90
2023-03-05T20:30:11.671Z,3.80
2023-03-05T20:32:39.270Z,3.80
2023-03-05T20:35:20.456Z,3.90
2023-03-05T20:37:51.422Z,4.10
2023-03-05T20:40:21.853Z,4.10
2023-03-05T20:42:48.955Z,4.20
2023-03-05T20:45:15.668Z,4.00
2023-03-05T20:47:46.167Z,4.00
2023-03-05T20:50:14.370Z,3.90
2023-03-05T20:52:41.137Z,3.80
2023-03-05T20:55:09.326Z,3.70
2023-03-05T20:57:36.043Z,3.70
2023-03-05T21:00:04.028Z,3.70
2023-03-05T21:02:30.777Z,3.80
2023-03-05T21:04:57.870Z,3.90
2023-03-05T21:07:26.186Z,3.90
2023-03-05T21:09:52.867Z,3.90
2023-03-05T21:12:19.588Z,4.00
2023-03-05T21:14:46.261Z,4.00
2023-03-05T21:17:12.941Z,4.00
2023-03-05T21:19:39.765Z,3.70
2023-03-05T21:22:06.583Z,3.50
2023-03-05T21:24:43.714Z,3.50
2023-03-05T21:27:10.991Z,3.60
2023-03-05T21:29:37.783Z,3.60
2023-03-05T21:32:05.291Z,3.50
2023-03-05T21:34:32.174Z,3.50
2023-03-05T21:36:58.934Z,3.60
2023-03-05T21:39:25.654Z,3.60
2023-03-05T21:41:52.442Z,3.60
2023-03-05T21:44:19.158Z,3.60
2023-03-05T21:46:45.927Z,3.60
2023-03-05T21:49:12.616Z,3.60
2023-03-05T21:51:50.547Z,3.60
2023-03-05T21:54:22.458Z,3.80
2023-03-05T21:56:49.074Z,3.70
2023-03-05T21:59:17.901Z,3.70
2023-03-05T22:01:44.582Z,3.80
2023-03-05T22:04:11.396Z,3.60
2023-03-05T22:06:38.157Z,3.50
2023-03-05T22:09:04.794Z,3.40
2023-03-05T22:11:31.746Z,3.60
2023-03-05T22:13:58.433Z,3.70
2023-03-05T22:16:26.668Z,3.70
2023-03-05T22:18:53.709Z,3.40
2023-03-05T22:21:32.097Z,3.30
2023-03-05T22:23:59.002Z,3.30
2023-03-05T22:26:32.700Z,3.30
2023-03-05T22:28:59.798Z,3.30
2023-03-05T22:31:27.632Z,3.30
2023-03-05T22:33:54.350Z,3.50
2023-03-05T22:36:21.458Z,3.60
2023-03-05T22:38:48.193Z,3.70
2023-03-05T22:41:17.299Z,3.70
2023-03-05T22:43:44.023Z,3.70
2023-03-05T22:46:13.574Z,3.70
2023-03-05T22:48:40.991Z,3.60
2023-03-05T22:51:09.019Z,3.50
2023-03-05T22:53:35.820Z,3.70
2023-03-05T22:56:07.800Z,3.70
2023-03-05T22:58:34.720Z,3.70
2023-03-05T23:01:01.602Z,3.60
2023-03-05T23:03:28.395Z,3.30
2023-03-05T23:05:55.177Z,3.30
2023-03-05T23:08:26.259Z,3.40
2023-03-05T23:11:05.746Z,3.30
2023-03-05T23:13:49.546Z,3.30
2023-03-05T23:16:20.438Z,3.30
2023-03-05T23:18:54.788Z,3.20
2023-03-05T23:21:27.438Z,3.30
2023-03-05T23:23:59.339Z,3.30
2023-03-05T23:26:30.216Z,3.30
2023-03-05T23:29:10.499Z,3.20
2023-03-05T23:31:44.127Z,3.20
2023-03-05T23:34:11.066Z,3.10
2023-03-05T23:36:40.401Z,3.20
2023-03-05T23:39:07.182Z,3.30
2023-03-05T23:41:33.833Z,3.40
2023-03-05T23:44:00.496Z,3.50
2023-03-05T23:46:27.400Z,3.60
2023-03-05T23:48:54.116Z,3.50
2023-03-05T23:51:20.784Z,3.50
2023-03-05T23:53:48.706Z,3.50
2023-03-05T23:56:15.432Z,3.30
2023-03-05T23:58:42.780Z,3.40
